Sioux Gateway Col. Bud Day Field
KSUX : now visible

Airfield :











YOU CAN JOIN US ON...

 
LOGIN :

Register | Disclaimer

   EN    FR    IT 

 









Legend :    VFR   Marginal VFR   IFR   Intensive IFR   Very Intensive IFR
Visi :
Ceiling :
>= 8 km
>= 3000ft
5 to 8 km
1000 to 3000 ft
1500m to 5 km
500 to 1000 ft
800 to 1500m
200 to 500 ft
< 800m
< 200 ft
Symbols :   Thunderstorms  Fog  Heavy snow  Heavy precipitations  Wind > 20 kt






- Airport Elevation : 1098 ft
- IATA code : SUX


KSUX - Sioux Gateway Col. Bud Day Field

CURRENT METAR :
  • 250452Z AUTO 05006KT 10SM OVC032 M02/M06 A3029 RMK AO2 SLP270 T10171061

EXPIRED METARs :
  • 250352Z AUTO 03006KT 10SM OVC031 M02/M06 A3028 RMK AO2 SLP269 T10171061
  • 250252Z AUTO 06007KT 10SM OVC034 M01/M07 A3026 RMK AO2 SLP263 T10111067 53016
  • 250152Z AUTO 07013KT 10SM OVC080 M01/M07 A3023 RMK AO2 SLP251 T10111067

TAF KSUX
Valid from the 25 at 00:00 until the 26 at 00:00 UTC


242325Z 2500/2524 07010KT P6SM OVC060
FM250300 06012KT P6SM OVC035
FM250500 05010KT 4SM -SN BR OVC015
FM250900 02011KT 2SM -SN BR OVC010
FM251400 01013KT 1SM -SN BR OVC007
FM252200 36011G17KT 2SM -SN BR OVC018
KZMP FIR / North America



MET'MAP, your aeronautical weather chart ! - Copyright ORBIFLY December 2007 - Disclaimer

ORBIFLY MET'MAP TEAM :

Programming & Development : Alexandra Zaïnal
Concept & original design : Baudouin d'Aumeries
Assistance for programming : Marc-Olivier Méhu
Technical & hardware support : Manuel Goepfert

Contact : metmap@orbifly.com




SOURCES & CREDITS :

   NOAA       Earth
Advisory